sensor_id;sensor_type;location;lat;lon;timestamp;P1;durP1;ratioP1;P2;durP2;ratioP2
62037;SDS011;47991;42.974;12.082;2024-01-10T00:02:07;10.90;;;4.90;;
62037;SDS011;47991;42.974;12.082;2024-01-10T00:04:33;10.10;;;4.40;;
62037;SDS011;47991;42.974;12.082;2024-01-10T00:06:59;11.00;;;4.70;;
62037;SDS011;47991;42.974;12.082;2024-01-10T00:09:25;9.00;;;4.60;;
62037;SDS011;47991;42.974;12.082;2024-01-10T00:11:53;14.00;;;5.20;;
62037;SDS011;47991;42.974;12.082;2024-01-10T00:14:19;10.40;;;5.00;;
62037;SDS011;47991;42.974;12.082;2024-01-10T00:16:46;11.30;;;4.70;;
62037;SDS011;47991;42.974;12.082;2024-01-10T00:19:12;10.90;;;4.50;;
62037;SDS011;47991;42.974;12.082;2024-01-10T00:21:38;10.20;;;4.70;;
62037;SDS011;47991;42.974;12.082;2024-01-10T00:24:04;10.90;;;4.50;;
62037;SDS011;47991;42.974;12.082;2024-01-10T00:26:31;13.10;;;5.00;;
62037;SDS011;47991;42.974;12.082;2024-01-10T00:28:57;14.30;;;5.20;;
62037;SDS011;47991;42.974;12.082;2024-01-10T00:31:23;11.70;;;4.80;;
62037;SDS011;47991;42.974;12.082;2024-01-10T00:33:49;11.20;;;4.60;;
62037;SDS011;47991;42.974;12.082;2024-01-10T00:36:16;10.50;;;4.60;;
62037;SDS011;47991;42.974;12.082;2024-01-10T00:38:42;10.10;;;4.20;;
62037;SDS011;47991;42.974;12.082;2024-01-10T00:41:08;11.40;;;4.30;;
62037;SDS011;47991;42.974;12.082;2024-01-10T00:43:34;9.30;;;4.40;;
62037;SDS011;47991;42.974;12.082;2024-01-10T00:46:00;11.20;;;4.30;;
62037;SDS011;47991;42.974;12.082;2024-01-10T00:48:26;13.10;;;4.50;;
62037;SDS011;47991;42.974;12.082;2024-01-10T00:50:53;10.70;;;4.70;;
62037;SDS011;47991;42.974;12.082;2024-01-10T00:53:19;10.00;;;4.10;;
62037;SDS011;47991;42.974;12.082;2024-01-10T00:55:45;11.00;;;4.30;;
62037;SDS011;47991;42.974;12.082;2024-01-10T00:58:11;8.90;;;4.20;;
62037;SDS011;47991;42.974;12.082;2024-01-10T01:00:37;10.80;;;4.30;;
62037;SDS011;47991;42.974;12.082;2024-01-10T01:03:04;12.40;;;4.50;;
62037;SDS011;47991;42.974;12.082;2024-01-10T01:05:31;8.00;;;3.90;;
62037;SDS011;47991;42.974;12.082;2024-01-10T01:07:58;9.30;;;4.00;;
62037;SDS011;47991;42.974;12.082;2024-01-10T01:10:24;9.30;;;4.20;;
62037;SDS011;47991;42.974;12.082;2024-01-10T01:12:50;10.90;;;4.40;;
62037;SDS011;47991;42.974;12.082;2024-01-10T01:15:16;10.80;;;4.70;;
62037;SDS011;47991;42.974;12.082;2024-01-10T01:17:42;11.10;;;4.60;;
62037;SDS011;47991;42.974;12.082;2024-01-10T01:20:09;10.00;;;4.30;;
62037;SDS011;47991;42.974;12.082;2024-01-10T01:22:35;11.20;;;4.80;;
62037;SDS011;47991;42.974;12.082;2024-01-10T01:25:02;9.10;;;4.40;;
62037;SDS011;47991;42.974;12.082;2024-01-10T01:27:28;12.40;;;4.70;;
62037;SDS011;47991;42.974;12.082;2024-01-10T01:29:54;10.30;;;4.30;;
62037;SDS011;47991;42.974;12.082;2024-01-10T01:32:20;11.00;;;4.80;;
62037;SDS011;47991;42.974;12.082;2024-01-10T01:34:47;11.40;;;4.60;;
62037;SDS011;47991;42.974;12.082;2024-01-10T01:37:13;11.00;;;4.50;;
62037;SDS011;47991;42.974;12.082;2024-01-10T01:39:40;8.60;;;4.30;;
62037;SDS011;47991;42.974;12.082;2024-01-10T01:42:06;10.90;;;4.20;;
62037;SDS011;47991;42.974;12.082;2024-01-10T01:44:32;8.70;;;3.80;;
62037;SDS011;47991;42.974;12.082;2024-01-10T01:46:59;11.00;;;4.20;;
62037;SDS011;47991;42.974;12.082;2024-01-10T01:49:26;11.30;;;4.10;;
62037;SDS011;47991;42.974;12.082;2024-01-10T01:51:55;11.50;;;4.40;;
62037;SDS011;47991;42.974;12.082;2024-01-10T01:54:22;8.40;;;3.30;;
62037;SDS011;47991;42.974;12.082;2024-01-10T01:56:49;11.50;;;4.20;;
62037;SDS011;47991;42.974;12.082;2024-01-10T01:59:16;12.30;;;5.00;;
62037;SDS011;47991;42.974;12.082;2024-01-10T02:01:43;10.00;;;4.30;;
62037;SDS011;47991;42.974;12.082;2024-01-10T02:04:10;12.80;;;4.70;;
62037;SDS011;47991;42.974;12.082;2024-01-10T02:06:36;11.50;;;4.20;;
62037;SDS011;47991;42.974;12.082;2024-01-10T02:09:02;10.50;;;4.20;;
62037;SDS011;47991;42.974;12.082;2024-01-10T02:11:29;10.20;;;4.10;;
62037;SDS011;47991;42.974;12.082;2024-01-10T02:13:57;11.60;;;4.10;;
62037;SDS011;47991;42.974;12.082;2024-01-10T02:16:23;9.60;;;4.10;;
62037;SDS011;47991;42.974;12.082;2024-01-10T02:18:50;10.00;;;4.10;;
62037;SDS011;47991;42.974;12.082;2024-01-10T02:21:20;9.70;;;4.40;;
62037;SDS011;47991;42.974;12.082;2024-01-10T02:23:47;13.20;;;4.20;;
62037;SDS011;47991;42.974;12.082;2024-01-10T02:26:14;11.00;;;4.30;;
62037;SDS011;47991;42.974;12.082;2024-01-10T02:28:41;9.90;;;4.30;;
62037;SDS011;47991;42.974;12.082;2024-01-10T02:31:07;14.10;;;4.20;;
62037;SDS011;47991;42.974;12.082;2024-01-10T02:33:33;9.80;;;4.30;;
62037;SDS011;47991;42.974;12.082;2024-01-10T02:36:00;9.80;;;4.80;;
62037;SDS011;47991;42.974;12.082;2024-01-10T02:38:26;10.10;;;4.80;;
62037;SDS011;47991;42.974;12.082;2024-01-10T02:40:53;10.70;;;4.50;;
62037;SDS011;47991;42.974;12.082;2024-01-10T02:43:21;13.70;;;4.90;;
62037;SDS011;47991;42.974;12.082;2024-01-10T02:45:47;11.30;;;4.40;;
62037;SDS011;47991;42.974;12.082;2024-01-10T02:48:13;10.50;;;4.40;;
62037;SDS011;47991;42.974;12.082;2024-01-10T02:50:40;9.70;;;4.10;;
62037;SDS011;47991;42.974;12.082;2024-01-10T02:53:06;11.20;;;4.70;;
62037;SDS011;47991;42.974;12.082;2024-01-10T02:55:33;9.80;;;4.30;;
62037;SDS011;47991;42.974;12.082;2024-01-10T02:57:59;9.70;;;3.70;;
62037;SDS011;47991;42.974;12.082;2024-01-10T03:03:16;13.30;;;4.20;;
62037;SDS011;47991;42.974;12.082;2024-01-10T03:05:42;10.00;;;3.90;;
62037;SDS011;47991;42.974;12.082;2024-01-10T03:08:08;10.00;;;4.40;;
62037;SDS011;47991;42.974;12.082;2024-01-10T03:10:35;11.10;;;4.10;;
62037;SDS011;47991;42.974;12.082;2024-01-10T03:13:03;9.60;;;4.30;;
62037;SDS011;47991;42.974;12.082;2024-01-10T03:15:30;9.50;;;4.20;;
62037;SDS011;47991;42.974;12.082;2024-01-10T03:17:57;9.80;;;4.50;;
62037;SDS011;47991;42.974;12.082;2024-01-10T03:20:23;12.10;;;4.40;;
62037;SDS011;47991;42.974;12.082;2024-01-10T03:22:49;13.90;;;4.60;;
62037;SDS011;47991;42.974;12.082;2024-01-10T03:25:16;11.50;;;4.70;;
62037;SDS011;47991;42.974;12.082;2024-01-10T03:27:42;13.10;;;4.20;;
62037;SDS011;47991;42.974;12.082;2024-01-10T03:30:08;11.50;;;4.20;;
62037;SDS011;47991;42.974;12.082;2024-01-10T03:32:35;11.00;;;4.50;;
62037;SDS011;47991;42.974;12.082;2024-01-10T03:35:02;11.10;;;4.40;;
62037;SDS011;47991;42.974;12.082;2024-01-10T03:37:29;11.00;;;4.30;;
62037;SDS011;47991;42.974;12.082;2024-01-10T03:39:55;11.10;;;4.50;;
62037;SDS011;47991;42.974;12.082;2024-01-10T03:42:21;10.40;;;4.50;;
62037;SDS011;47991;42.974;12.082;2024-01-10T03:44:48;12.40;;;4.00;;
62037;SDS011;47991;42.974;12.082;2024-01-10T03:47:14;10.00;;;4.30;;
62037;SDS011;47991;42.974;12.082;2024-01-10T03:49:41;9.10;;;4.10;;
62037;SDS011;47991;42.974;12.082;2024-01-10T03:52:07;9.20;;;4.10;;
62037;SDS011;47991;42.974;12.082;2024-01-10T03:54:34;10.80;;;4.70;;
62037;SDS011;47991;42.974;12.082;2024-01-10T03:57:00;10.10;;;3.80;;
62037;SDS011;47991;42.974;12.082;2024-01-10T03:59:27;12.40;;;4.00;;
62037;SDS011;47991;42.974;12.082;2024-01-10T04:01:53;7.70;;;3.40;;
62037;SDS011;47991;42.974;12.082;2024-01-10T04:04:19;8.50;;;4.10;;
62037;SDS011;47991;42.974;12.082;2024-01-10T04:06:46;11.10;;;4.20;;
62037;SDS011;47991;42.974;12.082;2024-01-10T04:09:12;11.60;;;4.50;;
62037;SDS011;47991;42.974;12.082;2024-01-10T04:11:39;10.90;;;4.30;;
62037;SDS011;47991;42.974;12.082;2024-01-10T04:14:05;12.00;;;4.80;;
62037;SDS011;47991;42.974;12.082;2024-01-10T04:16:32;10.30;;;4.50;;
62037;SDS011;47991;42.974;12.082;2024-01-10T04:18:59;9.00;;;4.10;;
62037;SDS011;47991;42.974;12.082;2024-01-10T04:21:26;10.30;;;4.20;;
62037;SDS011;47991;42.974;12.082;2024-01-10T04:23:52;9.50;;;3.90;;
62037;SDS011;47991;42.974;12.082;2024-01-10T04:26:18;11.90;;;4.30;;
62037;SDS011;47991;42.974;12.082;2024-01-10T04:28:45;11.00;;;4.40;;
62037;SDS011;47991;42.974;12.082;2024-01-10T04:31:11;11.60;;;4.10;;
62037;SDS011;47991;42.974;12.082;2024-01-10T04:33:37;9.80;;;4.30;;
62037;SDS011;47991;42.974;12.082;2024-01-10T04:36:04;11.90;;;4.30;;
62037;SDS011;47991;42.974;12.082;2024-01-10T04:38:32;11.90;;;4.40;;
62037;SDS011;47991;42.974;12.082;2024-01-10T04:40:58;11.00;;;4.00;;
62037;SDS011;47991;42.974;12.082;2024-01-10T04:43:25;15.60;;;4.00;;
62037;SDS011;47991;42.974;12.082;2024-01-10T04:45:51;8.70;;;4.20;;
62037;SDS011;47991;42.974;12.082;2024-01-10T04:48:17;9.60;;;4.00;;
62037;SDS011;47991;42.974;12.082;2024-01-10T04:50:44;11.00;;;3.60;;
62037;SDS011;47991;42.974;12.082;2024-01-10T04:53:10;9.10;;;4.30;;
62037;SDS011;47991;42.974;12.082;2024-01-10T04:55:36;8.80;;;3.90;;
62037;SDS011;47991;42.974;12.082;2024-01-10T04:58:03;13.30;;;4.30;;
62037;SDS011;47991;42.974;12.082;2024-01-10T05:00:29;8.90;;;4.00;;
62037;SDS011;47991;42.974;12.082;2024-01-10T05:02:56;8.80;;;4.40;;
62037;SDS011;47991;42.974;12.082;2024-01-10T05:05:23;8.60;;;3.80;;
62037;SDS011;47991;42.974;12.082;2024-01-10T05:07:50;9.80;;;4.00;;
62037;SDS011;47991;42.974;12.082;2024-01-10T05:10:17;10.10;;;3.90;;
62037;SDS011;47991;42.974;12.082;2024-01-10T05:12:43;10.20;;;4.30;;
62037;SDS011;47991;42.974;12.082;2024-01-10T05:15:10;8.50;;;4.00;;
62037;SDS011;47991;42.974;12.082;2024-01-10T05:17:36;10.00;;;3.60;;
62037;SDS011;47991;42.974;12.082;2024-01-10T05:20:02;9.60;;;4.30;;
62037;SDS011;47991;42.974;12.082;2024-01-10T05:22:29;12.00;;;5.40;;
62037;SDS011;47991;42.974;12.082;2024-01-10T05:24:56;10.90;;;4.10;;
62037;SDS011;47991;42.974;12.082;2024-01-10T05:27:22;10.00;;;4.10;;
62037;SDS011;47991;42.974;12.082;2024-01-10T05:29:49;11.30;;;4.30;;
62037;SDS011;47991;42.974;12.082;2024-01-10T05:32:15;10.90;;;4.80;;
62037;SDS011;47991;42.974;12.082;2024-01-10T05:34:42;8.80;;;4.10;;
62037;SDS011;47991;42.974;12.082;2024-01-10T05:37:08;10.50;;;4.20;;
62037;SDS011;47991;42.974;12.082;2024-01-10T05:39:35;8.90;;;4.30;;
62037;SDS011;47991;42.974;12.082;2024-01-10T05:42:02;9.90;;;4.40;;
62037;SDS011;47991;42.974;12.082;2024-01-10T05:44:29;9.10;;;4.00;;
62037;SDS011;47991;42.974;12.082;2024-01-10T05:46:55;8.20;;;3.90;;
62037;SDS011;47991;42.974;12.082;2024-01-10T05:49:25;11.40;;;4.60;;
62037;SDS011;47991;42.974;12.082;2024-01-10T05:55:03;9.50;;;4.20;;
62037;SDS011;47991;42.974;12.082;2024-01-10T05:57:30;10.80;;;4.30;;
62037;SDS011;47991;42.974;12.082;2024-01-10T05:59:56;9.70;;;4.40;;
62037;SDS011;47991;42.974;12.082;2024-01-10T06:02:23;9.20;;;4.40;;
62037;SDS011;47991;42.974;12.082;2024-01-10T06:04:51;10.30;;;4.20;;
62037;SDS011;47991;42.974;12.082;2024-01-10T06:07:17;11.10;;;4.10;;
62037;SDS011;47991;42.974;12.082;2024-01-10T06:09:43;10.90;;;4.70;;
62037;SDS011;47991;42.974;12.082;2024-01-10T06:12:10;10.90;;;5.10;;
62037;SDS011;47991;42.974;12.082;2024-01-10T06:14:37;9.80;;;4.60;;
62037;SDS011;47991;42.974;12.082;2024-01-10T06:17:05;11.60;;;5.00;;
62037;SDS011;47991;42.974;12.082;2024-01-10T06:19:31;11.50;;;5.20;;
62037;SDS011;47991;42.974;12.082;2024-01-10T06:21:58;13.20;;;5.20;;
62037;SDS011;47991;42.974;12.082;2024-01-10T06:24:25;9.20;;;4.80;;
62037;SDS011;47991;42.974;12.082;2024-01-10T06:26:52;10.70;;;4.70;;
62037;SDS011;47991;42.974;12.082;2024-01-10T06:29:18;10.70;;;4.60;;
62037;SDS011;47991;42.974;12.082;2024-01-10T06:31:45;9.80;;;4.50;;
62037;SDS011;47991;42.974;12.082;2024-01-10T06:34:11;11.40;;;4.80;;
62037;SDS011;47991;42.974;12.082;2024-01-10T06:36:37;10.20;;;4.90;;
62037;SDS011;47991;42.974;12.082;2024-01-10T06:39:04;10.90;;;5.00;;
62037;SDS011;47991;42.974;12.082;2024-01-10T06:41:31;12.70;;;4.80;;
62037;SDS011;47991;42.974;12.082;2024-01-10T06:43:58;12.40;;;4.80;;
62037;SDS011;47991;42.974;12.082;2024-01-10T06:46:24;8.40;;;3.80;;
62037;SDS011;47991;42.974;12.082;2024-01-10T06:48:51;9.80;;;4.20;;
62037;SDS011;47991;42.974;12.082;2024-01-10T06:51:17;10.70;;;4.20;;
62037;SDS011;47991;42.974;12.082;2024-01-10T06:53:43;8.90;;;4.30;;
62037;SDS011;47991;42.974;12.082;2024-01-10T06:56:10;13.60;;;4.20;;
62037;SDS011;47991;42.974;12.082;2024-01-10T06:58:37;11.20;;;4.60;;
62037;SDS011;47991;42.974;12.082;2024-01-10T07:01:04;9.90;;;4.60;;
62037;SDS011;47991;42.974;12.082;2024-01-10T07:03:31;9.80;;;4.20;;
62037;SDS011;47991;42.974;12.082;2024-01-10T07:06:00;11.10;;;4.10;;
62037;SDS011;47991;42.974;12.082;2024-01-10T07:08:26;9.20;;;3.90;;
62037;SDS011;47991;42.974;12.082;2024-01-10T07:10:53;11.60;;;4.90;;
62037;SDS011;47991;42.974;12.082;2024-01-10T07:13:21;10.00;;;4.90;;
62037;SDS011;47991;42.974;12.082;2024-01-10T07:15:48;9.00;;;4.20;;
62037;SDS011;47991;42.974;12.082;2024-01-10T07:18:16;11.40;;;4.80;;
62037;SDS011;47991;42.974;12.082;2024-01-10T07:20:43;8.50;;;4.20;;
62037;SDS011;47991;42.974;12.082;2024-01-10T07:23:10;9.10;;;3.80;;
62037;SDS011;47991;42.974;12.082;2024-01-10T07:25:36;9.00;;;4.30;;
62037;SDS011;47991;42.974;12.082;2024-01-10T07:28:03;10.80;;;5.10;;
62037;SDS011;47991;42.974;12.082;2024-01-10T07:30:30;13.10;;;5.80;;
62037;SDS011;47991;42.974;12.082;2024-01-10T07:32:59;13.20;;;5.00;;
62037;SDS011;47991;42.974;12.082;2024-01-10T07:35:25;12.00;;;4.60;;
62037;SDS011;47991;42.974;12.082;2024-01-10T07:37:53;9.70;;;4.40;;
62037;SDS011;47991;42.974;12.082;2024-01-10T07:40:19;9.30;;;4.40;;
62037;SDS011;47991;42.974;12.082;2024-01-10T07:42:46;12.60;;;5.10;;
62037;SDS011;47991;42.974;12.082;2024-01-10T07:45:12;8.90;;;4.20;;
62037;SDS011;47991;42.974;12.082;2024-01-10T07:47:39;11.10;;;4.70;;
62037;SDS011;47991;42.974;12.082;2024-01-10T07:50:06;11.10;;;4.90;;
62037;SDS011;47991;42.974;12.082;2024-01-10T07:52:33;10.40;;;4.60;;
62037;SDS011;47991;42.974;12.082;2024-01-10T07:55:00;10.10;;;4.70;;
62037;SDS011;47991;42.974;12.082;2024-01-10T07:57:30;10.80;;;4.30;;
62037;SDS011;47991;42.974;12.082;2024-01-10T07:59:57;8.50;;;3.70;;
62037;SDS011;47991;42.974;12.082;2024-01-10T08:02:24;15.70;;;5.10;;
62037;SDS011;47991;42.974;12.082;2024-01-10T08:04:51;11.60;;;4.80;;
62037;SDS011;47991;42.974;12.082;2024-01-10T08:07:18;14.60;;;5.40;;
62037;SDS011;47991;42.974;12.082;2024-01-10T08:09:45;11.60;;;5.10;;
62037;SDS011;47991;42.974;12.082;2024-01-10T08:12:12;10.30;;;4.60;;
62037;SDS011;47991;42.974;12.082;2024-01-10T08:14:39;10.60;;;5.00;;
62037;SDS011;47991;42.974;12.082;2024-01-10T08:17:06;12.20;;;5.70;;
62037;SDS011;47991;42.974;12.082;2024-01-10T08:19:35;11.30;;;4.90;;
62037;SDS011;47991;42.974;12.082;2024-01-10T08:22:02;13.20;;;5.30;;
62037;SDS011;47991;42.974;12.082;2024-01-10T08:24:28;11.30;;;5.50;;
62037;SDS011;47991;42.974;12.082;2024-01-10T08:26:54;11.20;;;5.00;;
62037;SDS011;47991;42.974;12.082;2024-01-10T08:29:21;12.80;;;5.60;;
62037;SDS011;47991;42.974;12.082;2024-01-10T08:31:47;11.10;;;5.20;;
62037;SDS011;47991;42.974;12.082;2024-01-10T08:34:14;11.10;;;4.80;;
62037;SDS011;47991;42.974;12.082;2024-01-10T08:36:40;11.50;;;4.80;;
62037;SDS011;47991;42.974;12.082;2024-01-10T08:39:07;11.20;;;5.60;;
62037;SDS011;47991;42.974;12.082;2024-01-10T08:41:33;11.40;;;5.30;;
62037;SDS011;47991;42.974;12.082;2024-01-10T08:44:02;10.80;;;4.60;;
62037;SDS011;47991;42.974;12.082;2024-01-10T08:46:29;10.90;;;4.90;;
62037;SDS011;47991;42.974;12.082;2024-01-10T08:48:55;10.90;;;5.30;;
62037;SDS011;47991;42.974;12.082;2024-01-10T08:51:21;11.40;;;5.50;;
62037;SDS011;47991;42.974;12.082;2024-01-10T08:53:48;11.40;;;5.70;;
62037;SDS011;47991;42.974;12.082;2024-01-10T08:56:14;11.10;;;4.90;;
62037;SDS011;47991;42.974;12.082;2024-01-10T08:58:42;10.70;;;5.20;;
62037;SDS011;47991;42.974;12.082;2024-01-10T09:01:08;12.40;;;5.30;;
62037;SDS011;47991;42.974;12.082;2024-01-10T09:03:34;14.30;;;5.40;;
62037;SDS011;47991;42.974;12.082;2024-01-10T09:06:01;12.50;;;5.60;;
62037;SDS011;47991;42.974;12.082;2024-01-10T09:08:29;11.00;;;5.60;;
62037;SDS011;47991;42.974;12.082;2024-01-10T09:10:56;10.20;;;5.30;;
62037;SDS011;47991;42.974;12.082;2024-01-10T09:13:23;10.30;;;5.20;;
62037;SDS011;47991;42.974;12.082;2024-01-10T09:15:50;10.90;;;5.50;;
62037;SDS011;47991;42.974;12.082;2024-01-10T09:18:17;11.10;;;5.40;;
62037;SDS011;47991;42.974;12.082;2024-01-10T09:20:43;10.30;;;5.20;;
62037;SDS011;47991;42.974;12.082;2024-01-10T09:23:10;10.00;;;5.10;;
62037;SDS011;47991;42.974;12.082;2024-01-10T09:25:37;10.50;;;5.20;;
62037;SDS011;47991;42.974;12.082;2024-01-10T09:28:06;10.70;;;5.40;;
62037;SDS011;47991;42.974;12.082;2024-01-10T09:30:33;10.40;;;5.60;;
62037;SDS011;47991;42.974;12.082;2024-01-10T09:33:00;14.40;;;6.10;;
62037;SDS011;47991;42.974;12.082;2024-01-10T09:35:26;15.10;;;5.80;;
62037;SDS011;47991;42.974;12.082;2024-01-10T09:37:52;12.90;;;5.50;;
62037;SDS011;47991;42.974;12.082;2024-01-10T09:40:22;11.40;;;5.80;;
62037;SDS011;47991;42.974;12.082;2024-01-10T09:42:51;10.70;;;5.30;;
62037;SDS011;47991;42.974;12.082;2024-01-10T09:45:20;12.80;;;5.80;;
62037;SDS011;47991;42.974;12.082;2024-01-10T09:47:49;10.70;;;5.90;;
62037;SDS011;47991;42.974;12.082;2024-01-10T09:50:23;12.40;;;5.70;;
62037;SDS011;47991;42.974;12.082;2024-01-10T09:53:04;12.70;;;6.50;;
62037;SDS011;47991;42.974;12.082;2024-01-10T09:55:36;11.40;;;5.00;;
62037;SDS011;47991;42.974;12.082;2024-01-10T09:58:04;12.30;;;5.40;;
62037;SDS011;47991;42.974;12.082;2024-01-10T10:00:33;12.00;;;5.70;;
62037;SDS011;47991;42.974;12.082;2024-01-10T10:03:02;11.30;;;5.20;;
62037;SDS011;47991;42.974;12.082;2024-01-10T10:05:30;12.00;;;5.00;;
62037;SDS011;47991;42.974;12.082;2024-01-10T10:08:00;12.60;;;5.30;;
62037;SDS011;47991;42.974;12.082;2024-01-10T10:10:26;10.90;;;5.40;;
62037;SDS011;47991;42.974;12.082;2024-01-10T10:12:53;12.40;;;5.40;;
62037;SDS011;47991;42.974;12.082;2024-01-10T10:15:23;12.80;;;5.90;;
62037;SDS011;47991;42.974;12.082;2024-01-10T10:17:53;11.30;;;5.80;;
62037;SDS011;47991;42.974;12.082;2024-01-10T10:20:21;11.50;;;5.60;;
62037;SDS011;47991;42.974;12.082;2024-01-10T10:25:45;11.50;;;5.10;;
62037;SDS011;47991;42.974;12.082;2024-01-10T10:28:13;13.00;;;6.00;;
62037;SDS011;47991;42.974;12.082;2024-01-10T10:30:39;11.00;;;4.80;;
62037;SDS011;47991;42.974;12.082;2024-01-10T10:33:06;13.20;;;6.10;;
62037;SDS011;47991;42.974;12.082;2024-01-10T10:35:35;11.60;;;6.00;;
62037;SDS011;47991;42.974;12.082;2024-01-10T10:38:01;11.50;;;5.10;;
62037;SDS011;47991;42.974;12.082;2024-01-10T10:40:27;10.90;;;5.40;;
62037;SDS011;47991;42.974;12.082;2024-01-10T10:42:57;10.40;;;5.80;;
62037;SDS011;47991;42.974;12.082;2024-01-10T10:45:23;13.00;;;6.10;;
62037;SDS011;47991;42.974;12.082;2024-01-10T10:47:58;12.30;;;5.70;;
62037;SDS011;47991;42.974;12.082;2024-01-10T10:50:33;14.40;;;5.90;;
62037;SDS011;47991;42.974;12.082;2024-01-10T10:53:01;12.00;;;5.50;;
62037;SDS011;47991;42.974;12.082;2024-01-10T10:55:29;12.40;;;5.30;;
62037;SDS011;47991;42.974;12.082;2024-01-10T10:57:57;11.60;;;5.60;;
62037;SDS011;47991;42.974;12.082;2024-01-10T11:00:24;12.50;;;6.40;;
62037;SDS011;47991;42.974;12.082;2024-01-10T11:02:53;11.50;;;5.00;;
62037;SDS011;47991;42.974;12.082;2024-01-10T11:05:22;13.70;;;6.20;;
62037;SDS011;47991;42.974;12.082;2024-01-10T11:07:50;14.40;;;6.50;;
62037;SDS011;47991;42.974;12.082;2024-01-10T11:10:38;11.60;;;6.20;;
62037;SDS011;47991;42.974;12.082;2024-01-10T11:24:24;11.70;;;5.70;;
62037;SDS011;47991;42.974;12.082;2024-01-10T11:27:07;13.40;;;6.00;;
62037;SDS011;47991;42.974;12.082;2024-01-10T11:29:36;12.20;;;6.00;;
62037;SDS011;47991;42.974;12.082;2024-01-10T11:32:05;10.70;;;5.40;;
62037;SDS011;47991;42.974;12.082;2024-01-10T11:34:32;14.80;;;5.90;;
62037;SDS011;47991;42.974;12.082;2024-01-10T11:37:11;11.10;;;5.70;;
62037;SDS011;47991;42.974;12.082;2024-01-10T11:39:41;14.00;;;6.40;;
62037;SDS011;47991;42.974;12.082;2024-01-10T11:42:11;15.70;;;6.30;;
62037;SDS011;47991;42.974;12.082;2024-01-10T11:44:47;11.40;;;5.30;;
62037;SDS011;47991;42.974;12.082;2024-01-10T11:49:56;13.10;;;5.80;;
62037;SDS011;47991;42.974;12.082;2024-01-10T11:52:31;11.40;;;5.60;;
62037;SDS011;47991;42.974;12.082;2024-01-10T11:55:03;15.10;;;6.00;;
62037;SDS011;47991;42.974;12.082;2024-01-10T11:57:32;13.70;;;6.20;;
62037;SDS011;47991;42.974;12.082;2024-01-10T11:59:59;12.60;;;5.90;;
62037;SDS011;47991;42.974;12.082;2024-01-10T12:02:26;12.80;;;6.60;;
62037;SDS011;47991;42.974;12.082;2024-01-10T12:04:54;11.50;;;5.60;;
62037;SDS011;47991;42.974;12.082;2024-01-10T12:07:21;11.70;;;5.60;;
62037;SDS011;47991;42.974;12.082;2024-01-10T12:09:49;13.00;;;5.90;;
62037;SDS011;47991;42.974;12.082;2024-01-10T12:12:16;10.80;;;5.50;;
62037;SDS011;47991;42.974;12.082;2024-01-10T12:14:42;12.90;;;5.90;;
62037;SDS011;47991;42.974;12.082;2024-01-10T12:17:16;12.40;;;5.40;;
62037;SDS011;47991;42.974;12.082;2024-01-10T12:19:44;12.80;;;5.70;;
62037;SDS011;47991;42.974;12.082;2024-01-10T12:22:11;11.60;;;5.50;;
62037;SDS011;47991;42.974;12.082;2024-01-10T12:24:43;14.40;;;6.50;;
62037;SDS011;47991;42.974;12.082;2024-01-10T12:27:15;11.80;;;5.60;;
62037;SDS011;47991;42.974;12.082;2024-01-10T12:29:47;10.30;;;5.70;;
62037;SDS011;47991;42.974;12.082;2024-01-10T12:32:19;12.20;;;6.40;;
62037;SDS011;47991;42.974;12.082;2024-01-10T12:34:48;11.10;;;5.70;;
62037;SDS011;47991;42.974;12.082;2024-01-10T12:37:15;10.80;;;5.50;;
62037;SDS011;47991;42.974;12.082;2024-01-10T12:39:41;10.90;;;5.40;;
62037;SDS011;47991;42.974;12.082;2024-01-10T12:42:08;12.30;;;5.90;;
62037;SDS011;47991;42.974;12.082;2024-01-10T12:44:35;13.90;;;5.80;;
62037;SDS011;47991;42.974;12.082;2024-01-10T12:47:02;13.60;;;6.70;;
62037;SDS011;47991;42.974;12.082;2024-01-10T12:49:29;11.80;;;5.50;;
62037;SDS011;47991;42.974;12.082;2024-01-10T12:51:56;11.80;;;5.30;;
62037;SDS011;47991;42.974;12.082;2024-01-10T12:54:22;12.30;;;5.80;;
62037;SDS011;47991;42.974;12.082;2024-01-10T12:56:48;11.60;;;5.60;;
62037;SDS011;47991;42.974;12.082;2024-01-10T12:59:19;12.40;;;5.90;;
62037;SDS011;47991;42.974;12.082;2024-01-10T13:07:49;11.20;;;6.20;;
62037;SDS011;47991;42.974;12.082;2024-01-10T13:10:16;10.70;;;5.10;;
62037;SDS011;47991;42.974;12.082;2024-01-10T13:12:43;10.80;;;5.30;;
62037;SDS011;47991;42.974;12.082;2024-01-10T13:15:11;14.90;;;5.70;;
62037;SDS011;47991;42.974;12.082;2024-01-10T13:17:38;13.50;;;6.40;;
62037;SDS011;47991;42.974;12.082;2024-01-10T13:20:06;10.20;;;4.80;;
62037;SDS011;47991;42.974;12.082;2024-01-10T13:22:36;11.40;;;5.80;;
62037;SDS011;47991;42.974;12.082;2024-01-10T13:25:03;12.40;;;6.00;;
62037;SDS011;47991;42.974;12.082;2024-01-10T13:27:31;10.20;;;5.10;;
62037;SDS011;47991;42.974;12.082;2024-01-10T13:29:58;11.00;;;5.20;;
62037;SDS011;47991;42.974;12.082;2024-01-10T13:32:25;11.20;;;5.30;;
62037;SDS011;47991;42.974;12.082;2024-01-10T13:34:53;11.90;;;6.00;;
62037;SDS011;47991;42.974;12.082;2024-01-10T13:37:19;11.80;;;6.20;;
62037;SDS011;47991;42.974;12.082;2024-01-10T13:39:46;11.70;;;6.10;;
62037;SDS011;47991;42.974;12.082;2024-01-10T13:42:14;13.10;;;6.10;;
62037;SDS011;47991;42.974;12.082;2024-01-10T13:48:12;14.60;;;7.70;;
62037;SDS011;47991;42.974;12.082;2024-01-10T13:50:40;13.80;;;7.30;;
62037;SDS011;47991;42.974;12.082;2024-01-10T13:53:07;14.20;;;7.10;;
62037;SDS011;47991;42.974;12.082;2024-01-10T13:55:35;15.40;;;7.60;;
62037;SDS011;47991;42.974;12.082;2024-01-10T13:58:02;15.30;;;6.80;;
62037;SDS011;47991;42.974;12.082;2024-01-10T14:00:30;14.30;;;7.10;;
62037;SDS011;47991;42.974;12.082;2024-01-10T14:02:57;13.70;;;6.30;;
62037;SDS011;47991;42.974;12.082;2024-01-10T14:05:27;10.80;;;5.00;;
62037;SDS011;47991;42.974;12.082;2024-01-10T14:07:55;11.10;;;5.60;;
62037;SDS011;47991;42.974;12.082;2024-01-10T14:10:23;11.90;;;5.60;;
62037;SDS011;47991;42.974;12.082;2024-01-10T14:13:03;12.40;;;5.00;;
62037;SDS011;47991;42.974;12.082;2024-01-10T14:15:30;10.80;;;5.10;;
62037;SDS011;47991;42.974;12.082;2024-01-10T14:17:57;11.20;;;4.80;;
62037;SDS011;47991;42.974;12.082;2024-01-10T14:20:24;11.70;;;5.20;;
62037;SDS011;47991;42.974;12.082;2024-01-10T14:22:51;15.00;;;5.30;;
62037;SDS011;47991;42.974;12.082;2024-01-10T14:25:19;10.50;;;5.50;;
62037;SDS011;47991;42.974;12.082;2024-01-10T14:27:47;11.10;;;5.50;;
62037;SDS011;47991;42.974;12.082;2024-01-10T14:30:14;13.00;;;5.00;;
62037;SDS011;47991;42.974;12.082;2024-01-10T14:32:42;13.00;;;5.30;;
62037;SDS011;47991;42.974;12.082;2024-01-10T14:35:09;11.30;;;5.90;;
62037;SDS011;47991;42.974;12.082;2024-01-10T14:37:36;12.20;;;5.60;;
62037;SDS011;47991;42.974;12.082;2024-01-10T14:40:04;15.70;;;6.90;;
62037;SDS011;47991;42.974;12.082;2024-01-10T14:42:33;15.20;;;8.30;;
62037;SDS011;47991;42.974;12.082;2024-01-10T14:45:00;16.70;;;8.20;;
62037;SDS011;47991;42.974;12.082;2024-01-10T14:47:28;16.90;;;8.70;;
62037;SDS011;47991;42.974;12.082;2024-01-10T14:49:55;17.40;;;9.00;;
62037;SDS011;47991;42.974;12.082;2024-01-10T14:52:25;17.20;;;8.50;;
62037;SDS011;47991;42.974;12.082;2024-01-10T14:54:53;16.30;;;8.60;;
62037;SDS011;47991;42.974;12.082;2024-01-10T14:57:20;15.00;;;7.90;;